sensor_id;sensor_type;location;lat;lon;timestamp;temperature;humidity
1055;DHT22;516;51.482;7.120;2023-04-06T00:04:34;1.00;99.90
1055;DHT22;516;51.482;7.120;2023-04-06T00:10:22;0.90;99.90
1055;DHT22;516;51.482;7.120;2023-04-06T00:16:10;1.00;99.90
1055;DHT22;516;51.482;7.120;2023-04-06T00:21:58;0.90;99.90
1055;DHT22;516;51.482;7.120;2023-04-06T00:34:30;0.90;99.90
1055;DHT22;516;51.482;7.120;2023-04-06T00:40:18;0.80;99.90
1055;DHT22;516;51.482;7.120;2023-04-06T00:46:05;0.60;99.90
1055;DHT22;516;51.482;7.120;2023-04-06T00:51:53;0.60;99.90
1055;DHT22;516;51.482;7.120;2023-04-06T00:57:41;0.70;99.90
1055;DHT22;516;51.482;7.120;2023-04-06T01:03:28;0.60;99.90
1055;DHT22;516;51.482;7.120;2023-04-06T01:09:17;0.50;99.90
1055;DHT22;516;51.482;7.120;2023-04-06T01:15:05;0.40;99.90
1055;DHT22;516;51.482;7.120;2023-04-06T01:20:53;0.30;99.90
1055;DHT22;516;51.482;7.120;2023-04-06T01:26:42;0.30;99.90
1055;DHT22;516;51.482;7.120;2023-04-06T01:32:30;0.30;99.90
1055;DHT22;516;51.482;7.120;2023-04-06T01:41:59;0.50;99.90
1055;DHT22;516;51.482;7.120;2023-04-06T01:47:46;0.50;99.90
1055;DHT22;516;51.482;7.120;2023-04-06T01:53:33;0.30;99.90
1055;DHT22;516;51.482;7.120;2023-04-06T01:59:21;0.40;99.90
1055;DHT22;516;51.482;7.120;2023-04-06T02:05:08;0.30;99.90
1055;DHT22;516;51.482;7.120;2023-04-06T02:10:55;0.30;99.90
1055;DHT22;516;51.482;7.120;2023-04-06T02:16:43;0.30;99.90
1055;DHT22;516;51.482;7.120;2023-04-06T02:22:31;0.20;99.90
1055;DHT22;516;51.482;7.120;2023-04-06T02:28:18;0.10;99.90
1055;DHT22;516;51.482;7.120;2023-04-06T02:34:25;0.00;99.90
1055;DHT22;516;51.482;7.120;2023-04-06T02:40:13;0.20;99.90
1055;DHT22;516;51.482;7.120;2023-04-06T02:46:00;-0.10;99.90
1055;DHT22;516;51.482;7.120;2023-04-06T02:51:47;0.00;99.90
1055;DHT22;516;51.482;7.120;2023-04-06T02:57:35;0.00;99.90
1055;DHT22;516;51.482;7.120;2023-04-06T03:03:23;-0.10;99.90
1055;DHT22;516;51.482;7.120;2023-04-06T03:09:10;-0.10;99.90
1055;DHT22;516;51.482;7.120;2023-04-06T03:14:58;-0.20;99.90
1055;DHT22;516;51.482;7.120;2023-04-06T03:20:46;-0.10;99.90
1055;DHT22;516;51.482;7.120;2023-04-06T03:26:34;-0.20;99.90
1055;DHT22;516;51.482;7.120;2023-04-06T03:35:56;-0.30;99.90
1055;DHT22;516;51.482;7.120;2023-04-06T03:41:44;-0.30;99.90
1055;DHT22;516;51.482;7.120;2023-04-06T03:47:32;-0.30;99.90
1055;DHT22;516;51.482;7.120;2023-04-06T03:53:20;0.00;99.90
1055;DHT22;516;51.482;7.120;2023-04-06T03:59:07;-0.30;99.90
1055;DHT22;516;51.482;7.120;2023-04-06T04:04:55;-0.20;99.90
1055;DHT22;516;51.482;7.120;2023-04-06T04:10:43;-0.10;99.90
1055;DHT22;516;51.482;7.120;2023-04-06T04:16:31;-0.50;99.90
1055;DHT22;516;51.482;7.120;2023-04-06T04:22:19;-0.60;99.90
1055;DHT22;516;51.482;7.120;2023-04-06T04:27:47;-0.50;99.90
1055;DHT22;516;51.482;7.120;2023-04-06T04:33:35;-0.60;99.90
1055;DHT22;516;51.482;7.120;2023-04-06T04:39:23;-0.70;99.90
1055;DHT22;516;51.482;7.120;2023-04-06T04:45:10;-0.80;99.90
1055;DHT22;516;51.482;7.120;2023-04-06T04:50:58;-0.70;99.90
1055;DHT22;516;51.482;7.120;2023-04-06T04:56:46;-0.70;99.90
1055;DHT22;516;51.482;7.120;2023-04-06T05:02:34;-0.60;99.90
1055;DHT22;516;51.482;7.120;2023-04-06T05:08:22;-0.50;99.90
1055;DHT22;516;51.482;7.120;2023-04-06T05:14:10;-0.40;99.90
1055;DHT22;516;51.482;7.120;2023-04-06T05:19:58;-0.30;99.90
1055;DHT22;516;51.482;7.120;2023-04-06T05:25:46;0.00;99.90
1055;DHT22;516;51.482;7.120;2023-04-06T05:38:18;1.30;99.90
1055;DHT22;516;51.482;7.120;2023-04-06T05:44:05;2.10;99.90
1055;DHT22;516;51.482;7.120;2023-04-06T05:49:53;3.00;99.90
1055;DHT22;516;51.482;7.120;2023-04-06T05:55:41;4.10;90.70
1055;DHT22;516;51.482;7.120;2023-04-06T06:01:28;4.80;59.20
1055;DHT22;516;51.482;7.120;2023-04-06T06:07:17;5.00;42.50
1055;DHT22;516;51.482;7.120;2023-04-06T06:13:05;5.30;31.70
1055;DHT22;516;51.482;7.120;2023-04-06T06:18:52;5.70;27.50
1055;DHT22;516;51.482;7.120;2023-04-06T06:24:40;6.00;23.60
1055;DHT22;516;51.482;7.120;2023-04-06T06:30:28;6.20;20.10
1055;DHT22;516;51.482;7.120;2023-04-06T06:39:47;6.50;16.10
1055;DHT22;516;51.482;7.120;2023-04-06T06:45:34;7.20;14.30
1055;DHT22;516;51.482;7.120;2023-04-06T06:51:22;7.10;13.30
1055;DHT22;516;51.482;7.120;2023-04-06T06:57:10;7.00;10.60
1055;DHT22;516;51.482;7.120;2023-04-06T07:02:58;7.30;9.60
1055;DHT22;516;51.482;7.120;2023-04-06T07:08:46;7.60;8.00
1055;DHT22;516;51.482;7.120;2023-04-06T07:14:34;7.90;4.90
1055;DHT22;516;51.482;7.120;2023-04-06T07:20:21;8.60;1.00
1055;DHT22;516;51.482;7.120;2023-04-06T07:26:09;8.60;1.00
1055;DHT22;516;51.482;7.120;2023-04-06T07:31:57;8.70;1.00
1055;DHT22;516;51.482;7.120;2023-04-06T07:37:39;9.00;1.00
1055;DHT22;516;51.482;7.120;2023-04-06T07:43:27;9.30;1.00
1055;DHT22;516;51.482;7.120;2023-04-06T07:49:15;9.30;1.00
1055;DHT22;516;51.482;7.120;2023-04-06T07:55:02;9.20;1.00
1055;DHT22;516;51.482;7.120;2023-04-06T08:00:50;10.20;1.00
1055;DHT22;516;51.482;7.120;2023-04-06T08:06:38;10.30;1.00
1055;DHT22;516;51.482;7.120;2023-04-06T08:12:26;11.60;1.00
1055;DHT22;516;51.482;7.120;2023-04-06T08:18:13;11.00;1.00
1055;DHT22;516;51.482;7.120;2023-04-06T08:24:02;10.80;1.00
1055;DHT22;516;51.482;7.120;2023-04-06T08:30:00;12.40;1.00
1055;DHT22;516;51.482;7.120;2023-04-06T08:39:46;11.40;1.00
1055;DHT22;516;51.482;7.120;2023-04-06T08:45:34;12.40;1.00
1055;DHT22;516;51.482;7.120;2023-04-06T08:51:23;12.40;1.00
1055;DHT22;516;51.482;7.120;2023-04-06T08:57:12;12.10;1.00
1055;DHT22;516;51.482;7.120;2023-04-06T09:03:00;12.80;1.00
1055;DHT22;516;51.482;7.120;2023-04-06T09:05:59;12.60;1.00
1055;DHT22;516;51.482;7.120;2023-04-06T09:08:25;12.60;1.00
1055;DHT22;516;51.482;7.120;2023-04-06T09:14:12;12.80;1.00
1055;DHT22;516;51.482;7.120;2023-04-06T09:20:01;12.80;1.00
1055;DHT22;516;51.482;7.120;2023-04-06T09:25:50;12.90;1.00
1055;DHT22;516;51.482;7.120;2023-04-06T09:31:38;13.80;1.00
1055;DHT22;516;51.482;7.120;2023-04-06T09:37:27;13.90;1.00
1055;DHT22;516;51.482;7.120;2023-04-06T09:42:56;14.20;1.00
1055;DHT22;516;51.482;7.120;2023-04-06T09:48:47;15.20;1.00
1055;DHT22;516;51.482;7.120;2023-04-06T09:54:35;15.60;1.00
1055;DHT22;516;51.482;7.120;2023-04-06T10:00:25;15.80;1.00
1055;DHT22;516;51.482;7.120;2023-04-06T10:06:15;15.30;1.00
1055;DHT22;516;51.482;7.120;2023-04-06T10:12:06;15.80;1.00
1055;DHT22;516;51.482;7.120;2023-04-06T10:17:53;16.20;1.00
1055;DHT22;516;51.482;7.120;2023-04-06T10:23:54;15.70;1.00
1055;DHT22;516;51.482;7.120;2023-04-06T10:30:05;15.80;1.00
1055;DHT22;516;51.482;7.120;2023-04-06T10:49:35;15.80;1.00
1055;DHT22;516;51.482;7.120;2023-04-06T10:55:22;16.50;1.00
1055;DHT22;516;51.482;7.120;2023-04-06T11:01:11;16.60;1.00
1055;DHT22;516;51.482;7.120;2023-04-06T11:06:58;16.20;1.00
1055;DHT22;516;51.482;7.120;2023-04-06T11:12:45;15.70;1.00
1055;DHT22;516;51.482;7.120;2023-04-06T11:25:11;17.00;1.00
1055;DHT22;516;51.482;7.120;2023-04-06T11:31:01;15.80;1.00
1055;DHT22;516;51.482;7.120;2023-04-06T11:40:13;16.20;1.00
1055;DHT22;516;51.482;7.120;2023-04-06T11:46:03;16.10;1.00
1055;DHT22;516;51.482;7.120;2023-04-06T11:51:51;16.50;1.00
1055;DHT22;516;51.482;7.120;2023-04-06T11:57:35;15.60;1.00
1055;DHT22;516;51.482;7.120;2023-04-06T12:03:23;16.30;1.00
1055;DHT22;516;51.482;7.120;2023-04-06T12:09:10;16.00;1.00
1055;DHT22;516;51.482;7.120;2023-04-06T12:14:58;15.90;1.00
1055;DHT22;516;51.482;7.120;2023-04-06T12:20:47;15.90;1.00
1055;DHT22;516;51.482;7.120;2023-04-06T12:26:35;15.60;1.00
1055;DHT22;516;51.482;7.120;2023-04-06T12:32:23;14.90;1.00
1055;DHT22;516;51.482;7.120;2023-04-06T12:38:11;14.70;1.00
1055;DHT22;516;51.482;7.120;2023-04-06T12:43:59;15.20;1.00
1055;DHT22;516;51.482;7.120;2023-04-06T12:49:49;14.10;1.00
1055;DHT22;516;51.482;7.120;2023-04-06T12:55:37;14.30;1.00
1055;DHT22;516;51.482;7.120;2023-04-06T13:01:25;14.40;1.00
1055;DHT22;516;51.482;7.120;2023-04-06T13:07:15;14.40;1.00
1055;DHT22;516;51.482;7.120;2023-04-06T13:13:03;13.90;1.00
1055;DHT22;516;51.482;7.120;2023-04-06T13:18:51;13.60;1.00
1055;DHT22;516;51.482;7.120;2023-04-06T13:24:38;13.50;1.00
1055;DHT22;516;51.482;7.120;2023-04-06T13:30:26;13.50;1.00
1055;DHT22;516;51.482;7.120;2023-04-06T13:46:08;13.60;1.00
1055;DHT22;516;51.482;7.120;2023-04-06T13:51:56;13.20;1.00
1055;DHT22;516;51.482;7.120;2023-04-06T13:57:44;13.40;1.00
1055;DHT22;516;51.482;7.120;2023-04-06T14:03:32;13.70;1.00
1055;DHT22;516;51.482;7.120;2023-04-06T14:09:19;13.20;1.00
1055;DHT22;516;51.482;7.120;2023-04-06T14:15:10;12.70;1.00
1055;DHT22;516;51.482;7.120;2023-04-06T14:20:58;12.50;1.00
1055;DHT22;516;51.482;7.120;2023-04-06T14:26:46;12.30;1.00
1055;DHT22;516;51.482;7.120;2023-04-06T14:32:34;11.90;1.00
1055;DHT22;516;51.482;7.120;2023-04-06T14:38:12;11.90;3.30
1055;DHT22;516;51.482;7.120;2023-04-06T14:44:00;12.00;1.40
1055;DHT22;516;51.482;7.120;2023-04-06T14:49:52;12.20;1.00
1055;DHT22;516;51.482;7.120;2023-04-06T14:55:40;12.40;1.00
1055;DHT22;516;51.482;7.120;2023-04-06T15:01:33;11.70;5.70
1055;DHT22;516;51.482;7.120;2023-04-06T15:07:22;11.80;9.50
1055;DHT22;516;51.482;7.120;2023-04-06T15:13:10;11.70;12.60
1055;DHT22;516;51.482;7.120;2023-04-06T15:18:59;11.80;13.90
1055;DHT22;516;51.482;7.120;2023-04-06T15:24:47;11.70;17.50
1055;DHT22;516;51.482;7.120;2023-04-06T15:30:35;11.70;21.40
1055;DHT22;516;51.482;7.120;2023-04-06T15:46:04;11.50;11.30
1055;DHT22;516;51.482;7.120;2023-04-06T15:51:52;11.30;11.60
1055;DHT22;516;51.482;7.120;2023-04-06T15:57:40;11.30;17.60
1055;DHT22;516;51.482;7.120;2023-04-06T16:03:28;11.10;22.10
1055;DHT22;516;51.482;7.120;2023-04-06T16:09:16;10.80;31.40
1055;DHT22;516;51.482;7.120;2023-04-06T16:15:04;10.40;55.10
1055;DHT22;516;51.482;7.120;2023-04-06T16:20:52;10.00;91.70
1055;DHT22;516;51.482;7.120;2023-04-06T16:26:40;9.80;99.90
1055;DHT22;516;51.482;7.120;2023-04-06T16:32:28;9.60;99.90
1055;DHT22;516;51.482;7.120;2023-04-06T16:38:14;9.40;99.90
1055;DHT22;516;51.482;7.120;2023-04-06T16:44:02;9.20;99.90
1055;DHT22;516;51.482;7.120;2023-04-06T16:49:50;9.10;99.90
1055;DHT22;516;51.482;7.120;2023-04-06T16:55:38;8.90;99.90
1055;DHT22;516;51.482;7.120;2023-04-06T17:01:28;8.60;99.90
1055;DHT22;516;51.482;7.120;2023-04-06T17:07:16;8.50;99.90
1055;DHT22;516;51.482;7.120;2023-04-06T17:13:03;8.30;99.90
1055;DHT22;516;51.482;7.120;2023-04-06T17:18:52;8.20;99.90
1055;DHT22;516;51.482;7.120;2023-04-06T17:24:40;8.20;99.90
1055;DHT22;516;51.482;7.120;2023-04-06T17:30:28;8.10;99.90
1055;DHT22;516;51.482;7.120;2023-04-06T17:40:18;8.00;99.90
1055;DHT22;516;51.482;7.120;2023-04-06T17:46:06;8.00;99.90
1055;DHT22;516;51.482;7.120;2023-04-06T17:51:53;8.00;99.90
1055;DHT22;516;51.482;7.120;2023-04-06T17:57:41;8.00;99.90
1055;DHT22;516;51.482;7.120;2023-04-06T18:03:30;8.00;99.90
1055;DHT22;516;51.482;7.120;2023-04-06T18:09:18;7.90;99.90
1055;DHT22;516;51.482;7.120;2023-04-06T18:15:06;7.80;99.90
1055;DHT22;516;51.482;7.120;2023-04-06T18:20:54;7.80;99.90
1055;DHT22;516;51.482;7.120;2023-04-06T18:26:42;7.70;99.90
1055;DHT22;516;51.482;7.120;2023-04-06T18:32:30;7.70;99.90
1055;DHT22;516;51.482;7.120;2023-04-06T18:48:32;7.70;99.90
1055;DHT22;516;51.482;7.120;2023-04-06T18:54:20;7.70;99.90
1055;DHT22;516;51.482;7.120;2023-04-06T19:00:08;7.70;99.90
1055;DHT22;516;51.482;7.120;2023-04-06T19:05:56;7.80;99.90
1055;DHT22;516;51.482;7.120;2023-04-06T19:11:43;7.70;99.90
1055;DHT22;516;51.482;7.120;2023-04-06T19:17:31;7.60;99.90
1055;DHT22;516;51.482;7.120;2023-04-06T19:23:19;7.50;99.90
1055;DHT22;516;51.482;7.120;2023-04-06T19:29:07;7.40;99.90
1055;DHT22;516;51.482;7.120;2023-04-06T19:34:55;7.30;99.90
1055;DHT22;516;51.482;7.120;2023-04-06T19:40:42;7.30;99.90
1055;DHT22;516;51.482;7.120;2023-04-06T19:49:52;7.30;99.90
1055;DHT22;516;51.482;7.120;2023-04-06T19:55:39;7.20;99.90
1055;DHT22;516;51.482;7.120;2023-04-06T20:01:27;7.20;99.90
1055;DHT22;516;51.482;7.120;2023-04-06T20:07:15;7.10;99.90
1055;DHT22;516;51.482;7.120;2023-04-06T20:13:03;7.20;99.90
1055;DHT22;516;51.482;7.120;2023-04-06T20:18:51;7.10;99.90
1055;DHT22;516;51.482;7.120;2023-04-06T20:24:38;7.10;99.90
1055;DHT22;516;51.482;7.120;2023-04-06T20:30:26;7.10;99.90
1055;DHT22;516;51.482;7.120;2023-04-06T20:36:14;7.10;99.90
1055;DHT22;516;51.482;7.120;2023-04-06T20:42:00;7.10;99.90
1055;DHT22;516;51.482;7.120;2023-04-06T20:47:51;7.20;99.90
1055;DHT22;516;51.482;7.120;2023-04-06T20:53:39;7.10;99.90
1055;DHT22;516;51.482;7.120;2023-04-06T20:59:27;7.20;99.90
1055;DHT22;516;51.482;7.120;2023-04-06T21:05:15;7.20;99.90
1055;DHT22;516;51.482;7.120;2023-04-06T21:11:03;7.20;99.90
1055;DHT22;516;51.482;7.120;2023-04-06T21:16:32;7.20;99.90
1055;DHT22;516;51.482;7.120;2023-04-06T21:22:20;7.30;99.90
1055;DHT22;516;51.482;7.120;2023-04-06T21:28:08;7.30;99.90
1055;DHT22;516;51.482;7.120;2023-04-06T21:33:55;7.30;99.90
1055;DHT22;516;51.482;7.120;2023-04-06T21:49:48;7.30;99.90
1055;DHT22;516;51.482;7.120;2023-04-06T21:55:46;7.40;99.90
1055;DHT22;516;51.482;7.120;2023-04-06T22:01:33;7.40;99.90
1055;DHT22;516;51.482;7.120;2023-04-06T22:07:21;7.40;99.90
1055;DHT22;516;51.482;7.120;2023-04-06T22:13:09;7.40;99.90
1055;DHT22;516;51.482;7.120;2023-04-06T22:18:58;7.50;99.90
1055;DHT22;516;51.482;7.120;2023-04-06T22:24:46;7.50;99.90
1055;DHT22;516;51.482;7.120;2023-04-06T22:30:33;7.50;99.90
1055;DHT22;516;51.482;7.120;2023-04-06T22:36:21;7.50;99.90
1055;DHT22;516;51.482;7.120;2023-04-06T22:41:59;7.50;99.90
1055;DHT22;516;51.482;7.120;2023-04-06T22:47:47;7.50;99.90
1055;DHT22;516;51.482;7.120;2023-04-06T22:53:34;7.50;99.90
1055;DHT22;516;51.482;7.120;2023-04-06T22:59:22;7.50;99.90
1055;DHT22;516;51.482;7.120;2023-04-06T23:05:10;7.50;99.90
1055;DHT22;516;51.482;7.120;2023-04-06T23:10:58;7.50;99.90
1055;DHT22;516;51.482;7.120;2023-04-06T23:16:45;7.50;99.90
1055;DHT22;516;51.482;7.120;2023-04-06T23:22:33;7.50;99.90
1055;DHT22;516;51.482;7.120;2023-04-06T23:28:21;7.50;99.90
1055;DHT22;516;51.482;7.120;2023-04-06T23:34:09;7.50;99.90
1055;DHT22;516;51.482;7.120;2023-04-06T23:49:53;7.50;99.90
1055;DHT22;516;51.482;7.120;2023-04-06T23:55:42;7.50;99.90
